createdAt,value
2022-11-18T00:01:44.773Z,100081.88
2022-11-18T00:04:14.230Z,100099.19
2022-11-18T00:06:41.285Z,100104.13
2022-11-18T00:09:10.624Z,100107.41
2022-11-18T00:11:55.803Z,100113.22
2022-11-18T00:14:27.287Z,100124.31
2022-11-18T00:17:01.116Z,100128.00
2022-11-18T00:19:32.498Z,100127.31
2022-11-18T00:21:59.898Z,100135.81
2022-11-18T00:24:27.323Z,100141.34
2022-11-18T00:26:57.810Z,100149.56
2022-11-18T00:29:28.737Z,100144.81
2022-11-18T00:31:56.604Z,100158.19
2022-11-18T00:34:24.328Z,100145.16
2022-11-18T00:36:51.601Z,100153.81
2022-11-18T00:39:20.384Z,100161.47
2022-11-18T00:42:06.436Z,100161.31
2022-11-18T00:44:33.892Z,100163.66
2022-11-18T00:47:00.787Z,100174.06
2022-11-18T00:49:27.761Z,100189.38
2022-11-18T00:51:54.687Z,100187.63
2022-11-18T00:54:21.477Z,100190.72
2022-11-18T00:57:13.286Z,100193.56
2022-11-18T00:59:40.162Z,100195.22
2022-11-18T01:02:07.067Z,100195.38
2022-11-18T01:04:33.838Z,100198.28
2022-11-18T01:07:00.684Z,100210.03
2022-11-18T01:09:27.721Z,100202.94
2022-11-18T01:12:12.951Z,100216.34
2022-11-18T01:14:39.733Z,100213.66
2022-11-18T01:17:07.090Z,100222.75
2022-11-18T01:19:33.968Z,100222.66
2022-11-18T01:22:03.730Z,100232.22
2022-11-18T01:24:55.529Z,100223.59
2022-11-18T01:27:22.415Z,100239.16
2022-11-18T01:29:49.349Z,100235.59
2022-11-18T01:32:25.216Z,100240.66
2022-11-18T01:34:52.743Z,100239.69
2022-11-18T01:37:20.530Z,100238.59
2022-11-18T01:39:47.536Z,100242.38
2022-11-18T01:42:17.116Z,100254.47
2022-11-18T01:45:16.798Z,100247.69
2022-11-18T01:47:54.105Z,100260.31
2022-11-18T01:50:22.525Z,100260.69
2022-11-18T01:52:51.971Z,100256.81
2022-11-18T01:55:25.011Z,100265.41
2022-11-18T01:57:57.191Z,100258.25
2022-11-18T02:00:24.666Z,100268.22
2022-11-18T02:02:51.773Z,100267.13
2022-11-18T02:05:44.483Z,100287.16
2022-11-18T02:08:11.651Z,100294.56
2022-11-18T02:10:38.595Z,100285.41
2022-11-18T02:13:06.174Z,100288.31
2022-11-18T02:16:15.906Z,100297.72
2022-11-18T02:18:58.771Z,100293.50
2022-11-18T02:21:44.158Z,100310.53
2022-11-18T02:24:20.210Z,100299.81
2022-11-18T02:27:19.430Z,100299.47
2022-11-18T02:29:55.148Z,100300.19
2022-11-18T02:32:30.444Z,100303.50
2022-11-18T02:35:15.758Z,100295.38
2022-11-18T02:37:55.637Z,100296.47
2022-11-18T02:40:30.757Z,100312.50
2022-11-18T02:43:08.527Z,100312.81
2022-11-18T02:45:41.304Z,100311.56
2022-11-18T02:48:11.779Z,100315.09
2022-11-18T02:50:41.418Z,100314.00
2022-11-18T02:53:11.143Z,100318.00
2022-11-18T02:55:40.940Z,100317.72
2022-11-18T02:58:09.039Z,100318.72
2022-11-18T03:00:36.716Z,100323.28
2022-11-18T03:03:26.524Z,100329.53
2022-11-18T03:06:25.639Z,100332.84
2022-11-18T03:09:15.691Z,100326.13
2022-11-18T03:11:56.629Z,100327.25
2022-11-18T03:14:52.141Z,100343.09
2022-11-18T03:17:27.755Z,100340.31
2022-11-18T03:20:26.852Z,100350.84
2022-11-18T03:23:02.688Z,100352.06
2022-11-18T03:25:51.208Z,100362.84
2022-11-18T03:28:27.958Z,100361.91
2022-11-18T03:31:03.052Z,100360.91
2022-11-18T03:33:36.480Z,100353.03
2022-11-18T03:36:08.047Z,100355.91
2022-11-18T03:38:40.587Z,100352.22
2022-11-18T03:41:12.064Z,100357.59
2022-11-18T03:43:50.713Z,100359.97
2022-11-18T03:46:23.945Z,100354.66
2022-11-18T03:48:56.908Z,100351.94
2022-11-18T03:51:31.070Z,100368.22
2022-11-18T03:54:16.355Z,100382.22
2022-11-18T03:56:55.210Z,100380.19
2022-11-18T03:59:31.718Z,100379.59
2022-11-18T04:02:12.038Z,100390.53
2022-11-18T04:04:42.300Z,100394.81
2022-11-18T04:07:28.462Z,100395.69
2022-11-18T04:10:03.659Z,100404.16
2022-11-18T04:12:36.113Z,100419.56
2022-11-18T04:15:06.919Z,100416.09
2022-11-18T04:17:34.053Z,100422.50
2022-11-18T04:20:01.448Z,100418.88
2022-11-18T04:22:28.743Z,100418.06
2022-11-18T04:24:56.068Z,100422.78
2022-11-18T04:27:23.259Z,100431.69
2022-11-18T04:29:50.457Z,100434.16
2022-11-18T04:32:17.485Z,100437.75
2022-11-18T04:34:49.469Z,100436.81
2022-11-18T04:37:16.555Z,100445.28
2022-11-18T04:39:43.749Z,100450.34
2022-11-18T04:42:11.489Z,100452.84
2022-11-18T04:44:38.578Z,100450.22
2022-11-18T04:47:07.007Z,100464.50
2022-11-18T04:49:35.394Z,100475.06
2022-11-18T04:52:03.261Z,100473.66
2022-11-18T04:54:30.541Z,100484.31
2022-11-18T04:56:57.592Z,100503.59
2022-11-18T04:59:27.694Z,100500.78
2022-11-18T05:01:55.261Z,100509.59
2022-11-18T05:04:24.640Z,100518.34
2022-11-18T05:06:53.372Z,100521.69
2022-11-18T05:09:46.372Z,100527.19
2022-11-18T05:12:36.235Z,100526.84
2022-11-18T05:15:03.372Z,100525.91
2022-11-18T05:17:55.851Z,100538.25
2022-11-18T05:20:27.209Z,100552.72
2022-11-18T05:22:59.332Z,100553.00
2022-11-18T05:25:28.287Z,100552.19
2022-11-18T05:27:56.089Z,100559.56
2022-11-18T05:30:25.042Z,100565.84
2022-11-18T05:32:52.751Z,100572.47
2022-11-18T05:35:19.936Z,100583.22
2022-11-18T05:37:47.047Z,100575.72
2022-11-18T05:40:14.052Z,100590.72
2022-11-18T05:42:59.520Z,100600.63
2022-11-18T05:45:26.353Z,100601.94
2022-11-18T05:48:04.370Z,100607.72
2022-11-18T05:50:33.804Z,100604.50
2022-11-18T05:53:03.202Z,100617.72
2022-11-18T05:55:37.529Z,100617.75
2022-11-18T05:58:04.604Z,100625.91
2022-11-18T06:00:32.779Z,100636.75
2022-11-18T06:03:00.883Z,100635.81
2022-11-18T06:05:32.094Z,100637.78
2022-11-18T06:07:59.175Z,100640.94
2022-11-18T06:10:35.879Z,100635.22
2022-11-18T06:13:08.146Z,100647.22
2022-11-18T06:15:40.761Z,100652.09
2022-11-18T06:18:21.317Z,100646.75
2022-11-18T06:20:48.222Z,100657.00
2022-11-18T06:23:16.406Z,100665.66
2022-11-18T06:25:43.613Z,100658.69
2022-11-18T06:28:39.090Z,100672.25
2022-11-18T06:31:06.508Z,100692.38
2022-11-18T06:33:33.468Z,100696.13
2022-11-18T06:36:00.900Z,100701.34
2022-11-18T06:38:28.798Z,100704.03
2022-11-18T06:43:51.893Z,100709.50
2022-11-18T06:46:37.131Z,100734.44
2022-11-18T06:49:04.247Z,100738.84
2022-11-18T06:51:31.205Z,100741.53
2022-11-18T06:53:58.259Z,100756.19
2022-11-18T06:56:27.117Z,100750.38
2022-11-18T06:59:24.357Z,100764.72
2022-11-18T07:01:53.290Z,100767.22
2022-11-18T07:04:20.798Z,100778.78
2022-11-18T07:07:12.695Z,100769.81
2022-11-18T07:09:41.744Z,100777.06
2022-11-18T07:12:08.935Z,100782.13
2022-11-18T07:14:36.048Z,100768.19
2022-11-18T07:17:03.170Z,100769.81
2022-11-18T07:19:35.452Z,100770.75
2022-11-18T07:22:02.925Z,100768.31
2022-11-18T07:24:30.001Z,100779.03
2022-11-18T07:26:57.378Z,100778.22
2022-11-18T07:29:24.361Z,100784.50
2022-11-18T07:31:51.492Z,100780.97
2022-11-18T07:34:18.535Z,100782.53
2022-11-18T07:36:46.132Z,100788.25
2022-11-18T07:39:13.309Z,100784.72
2022-11-18T07:41:41.295Z,100796.03
2022-11-18T07:44:11.856Z,100799.66
2022-11-18T07:46:39.270Z,100797.75
2022-11-18T07:49:08.800Z,100799.38
2022-11-18T07:51:39.721Z,100788.78
2022-11-18T07:54:17.176Z,100796.16
2022-11-18T07:56:44.303Z,100804.66
2022-11-18T07:59:11.359Z,100806.22
2022-11-18T08:01:38.362Z,100801.69
2022-11-18T08:04:10.952Z,100790.69
2022-11-18T08:06:38.507Z,100809.59
2022-11-18T08:09:06.935Z,100812.00
2022-11-18T08:11:36.077Z,100818.09
2022-11-18T08:14:02.924Z,100803.25
2022-11-18T08:16:31.135Z,100811.97
2022-11-18T08:18:59.713Z,100821.22
2022-11-18T08:21:26.793Z,100813.97
2022-11-18T08:23:56.393Z,100819.84
2022-11-18T08:26:25.048Z,100815.91
2022-11-18T08:28:52.581Z,100804.72
2022-11-18T08:31:28.803Z,100820.91
2022-11-18T08:34:09.256Z,100818.66
2022-11-18T08:36:37.884Z,100806.03
2022-11-18T08:39:07.970Z,100802.34
2022-11-18T08:41:40.346Z,100794.75
2022-11-18T08:44:09.275Z,100793.06
2022-11-18T08:46:36.196Z,100796.88
2022-11-18T08:49:03.316Z,100791.34
2022-11-18T08:51:30.418Z,100782.34
2022-11-18T08:54:01.692Z,100786.47
2022-11-18T08:56:33.554Z,100772.38
2022-11-18T08:59:04.225Z,100782.34
2022-11-18T09:01:31.365Z,100778.69
2022-11-18T09:03:58.240Z,100774.13
2022-11-18T09:06:25.516Z,100777.56
2022-11-18T09:08:53.245Z,100771.31
2022-11-18T09:11:25.482Z,100765.53
2022-11-18T09:14:53.531Z,100754.22
2022-11-18T09:16:42.275Z,100774.38
2022-11-18T09:19:39.729Z,100752.09
2022-11-18T09:21:56.354Z,100768.44
2022-11-18T09:24:23.429Z,100771.25
2022-11-18T09:26:50.745Z,100745.91
2022-11-18T09:29:17.862Z,100740.06
2022-11-18T09:31:44.962Z,100738.13
2022-11-18T09:34:12.027Z,100746.19
2022-11-18T09:36:39.088Z,100768.00
2022-11-18T09:39:06.254Z,100753.50
2022-11-18T09:41:40.440Z,100716.97
2022-11-18T09:44:19.401Z,100763.31
2022-11-18T09:47:21.853Z,100766.66
2022-11-18T09:49:49.444Z,100775.31
2022-11-18T09:52:39.218Z,100756.00
2022-11-18T09:55:18.097Z,100776.25
2022-11-18T10:00:43.666Z,100781.34
2022-11-18T10:03:29.757Z,100756.50
2022-11-18T10:06:32.422Z,100768.19
2022-11-18T10:09:27.494Z,100772.38
2022-11-18T10:12:13.377Z,100756.13
2022-11-18T10:15:08.362Z,100754.78
2022-11-18T10:17:41.426Z,100765.59
2022-11-18T10:20:11.152Z,100731.50
2022-11-18T10:22:56.679Z,100720.09
2022-11-18T10:25:24.100Z,100754.66
2022-11-18T10:27:51.824Z,100745.66
2022-11-18T10:30:26.562Z,100756.19
2022-11-18T10:33:02.715Z,100765.00
2022-11-18T10:36:17.338Z,100774.03
2022-11-18T10:38:49.751Z,100763.81
2022-11-18T10:41:20.745Z,100761.50
2022-11-18T10:43:56.132Z,100749.00
2022-11-18T10:46:29.067Z,100767.97
2022-11-18T10:49:10.160Z,100786.31
2022-11-18T10:51:39.217Z,100789.31
2022-11-18T10:54:19.315Z,100795.25
2022-11-18T10:56:58.816Z,100802.66
2022-11-18T10:59:32.768Z,100814.28
2022-11-18T11:02:15.750Z,100811.38
2022-11-18T11:04:43.886Z,100819.50
2022-11-18T11:07:24.423Z,100820.56
2022-11-18T11:10:20.936Z,100819.75
2022-11-18T11:13:00.529Z,100825.78
2022-11-18T11:15:41.783Z,100819.75
2022-11-18T11:18:42.643Z,100832.28
2022-11-18T11:21:22.838Z,100835.16
2022-11-18T11:23:50.080Z,100845.72
2022-11-18T11:29:30.133Z,100849.63
2022-11-18T11:32:10.591Z,100851.91
2022-11-18T11:34:51.760Z,100850.31
2022-11-18T11:37:44.958Z,100875.72
2022-11-18T11:40:27.424Z,100856.59
2022-11-18T11:43:12.810Z,100859.38
2022-11-18T11:46:04.229Z,100876.56
2022-11-18T11:49:00.430Z,100851.63
2022-11-18T11:51:38.336Z,100852.78
2022-11-18T11:54:29.401Z,100856.91
2022-11-18T11:57:45.892Z,100852.88
2022-11-18T12:00:16.591Z,100854.38
2022-11-18T12:02:56.732Z,100870.00
2022-11-18T12:05:31.212Z,100894.81
2022-11-18T12:08:08.147Z,100883.91
2022-11-18T12:11:01.169Z,100861.69
2022-11-18T12:13:40.441Z,100875.06
2022-11-18T12:16:14.032Z,100880.19
2022-11-18T12:18:51.327Z,100900.31
2022-11-18T12:21:46.454Z,100894.84
2022-11-18T12:24:36.575Z,100910.34
2022-11-18T12:27:09.436Z,100844.69
2022-11-18T12:29:54.318Z,100834.91
2022-11-18T12:32:26.662Z,100821.63
2022-11-18T12:35:05.795Z,100802.88
2022-11-18T12:37:32.482Z,100828.69
2022-11-18T12:40:01.074Z,100850.84
2022-11-18T12:43:06.554Z,100861.94
2022-11-18T12:45:42.913Z,100861.94
2022-11-18T12:48:33.448Z,100854.91
2022-11-18T12:51:16.430Z,100859.25
2022-11-18T12:53:45.985Z,100866.84
2022-11-18T12:56:19.277Z,100877.31
2022-11-18T12:59:04.284Z,100878.75
2022-11-18T13:01:36.323Z,100874.47
2022-11-18T13:04:13.114Z,100891.03
2022-11-18T13:06:40.794Z,100879.06
2022-11-18T13:09:37.620Z,100864.16
2022-11-18T13:12:18.062Z,100870.81
2022-11-18T13:15:10.689Z,100881.41
2022-11-18T13:17:52.687Z,100881.47
2022-11-18T13:20:36.136Z,100874.22
2022-11-18T13:23:43.444Z,100901.25
2022-11-18T13:26:29.053Z,100891.31
2022-11-18T13:29:09.169Z,100902.44
2022-11-18T13:31:54.248Z,100925.47
2022-11-18T13:34:22.381Z,100905.84
2022-11-18T13:36:50.963Z,100903.91
2022-11-18T13:39:23.346Z,100925.25
2022-11-18T13:42:05.239Z,100950.97
2022-11-18T13:44:37.776Z,100948.44
2022-11-18T13:47:23.719Z,100963.78
2022-11-18T13:50:10.790Z,100972.81
2022-11-18T13:52:58.306Z,100974.16
2022-11-18T13:55:29.594Z,100992.84
2022-11-18T13:58:04.642Z,101013.25
2022-11-18T14:00:35.226Z,101035.53
2022-11-18T14:03:31.108Z,101035.81
2022-11-18T14:05:59.023Z,101046.97
2022-11-18T14:08:34.404Z,101074.63
2022-11-18T14:11:02.100Z,101082.22
2022-11-18T14:13:32.879Z,101086.66
2022-11-18T14:16:24.164Z,101118.75
2022-11-18T14:18:52.161Z,101129.19
2022-11-18T14:21:30.599Z,101124.75
2022-11-18T14:23:57.878Z,101129.38
2022-11-18T14:26:34.104Z,101137.78
2022-11-18T14:29:04.452Z,101137.59
2022-11-18T14:31:32.470Z,101133.59
2022-11-18T14:34:27.165Z,101145.25
2022-11-18T14:36:55.988Z,101159.84
2022-11-18T14:39:27.483Z,101161.72
2022-11-18T14:41:55.401Z,101158.00
2022-11-18T14:44:24.460Z,101172.63
2022-11-18T14:46:59.601Z,101180.63
2022-11-18T14:49:27.930Z,101188.06
2022-11-18T14:51:56.231Z,101194.22
2022-11-18T14:54:32.653Z,101195.66
2022-11-18T14:57:04.887Z,101204.25
2022-11-18T14:59:32.160Z,101213.75
2022-11-18T15:01:59.728Z,101231.22
2022-11-18T15:04:26.837Z,101226.28
2022-11-18T15:06:54.000Z,101225.03
2022-11-18T15:09:21.261Z,101219.81
2022-11-18T15:11:48.294Z,101225.72
2022-11-18T15:14:15.650Z,101222.19
2022-11-18T15:16:42.912Z,101239.81
2022-11-18T15:19:15.172Z,101239.50
2022-11-18T15:21:42.899Z,101255.50
2022-11-18T15:24:09.854Z,101256.09
2022-11-18T15:26:39.854Z,101262.41
2022-11-18T15:29:07.166Z,101262.34
2022-11-18T15:31:34.310Z,101262.50
2022-11-18T15:34:06.570Z,101263.72
2022-11-18T15:36:39.373Z,101275.09
2022-11-18T15:39:06.642Z,101283.13
2022-11-18T15:41:34.341Z,101281.69
2022-11-18T15:44:03.218Z,101287.34
2022-11-18T15:46:30.846Z,101283.28
2022-11-18T15:48:59.807Z,101295.44
2022-11-18T15:51:53.798Z,101288.13
2022-11-18T15:54:23.980Z,101296.13
2022-11-18T15:56:51.060Z,101299.78
2022-11-18T15:59:18.160Z,101301.09
2022-11-18T16:02:13.289Z,101300.41
2022-11-18T16:04:40.708Z,101299.91
2022-11-18T16:07:08.012Z,101293.91
2022-11-18T16:09:56.130Z,101310.13
2022-11-18T16:12:41.554Z,101303.72
2022-11-18T16:15:27.613Z,101306.16
2022-11-18T16:17:55.762Z,101307.78
2022-11-18T16:20:23.272Z,101315.66
2022-11-18T16:22:54.133Z,101315.13
2022-11-18T16:25:22.633Z,101327.94
2022-11-18T16:27:50.138Z,101324.56
2022-11-18T16:30:36.191Z,101334.53
2022-11-18T16:33:04.249Z,101331.63
2022-11-18T16:35:32.042Z,101337.34
2022-11-18T16:37:59.267Z,101347.78
2022-11-18T16:40:28.558Z,101352.22
2022-11-18T16:42:56.014Z,101352.81
2022-11-18T16:45:23.274Z,101352.25
2022-11-18T16:47:50.243Z,101358.19
2022-11-18T16:50:17.962Z,101347.47
2022-11-18T16:52:44.871Z,101346.25
2022-11-18T16:55:12.208Z,101348.19
2022-11-18T16:57:39.076Z,101357.56
2022-11-18T17:00:06.941Z,101350.81
2022-11-18T17:02:35.030Z,101356.53
2022-11-18T17:05:02.147Z,101363.91
2022-11-18T17:07:33.952Z,101354.56
2022-11-18T17:10:04.181Z,101359.28
2022-11-18T17:12:36.676Z,101366.56
2022-11-18T17:15:04.236Z,101364.34
2022-11-18T17:17:31.137Z,101367.13
2022-11-18T17:19:58.203Z,101368.19
2022-11-18T17:22:25.327Z,101369.00
2022-11-18T17:24:52.363Z,101372.72
2022-11-18T17:27:44.608Z,101377.22
2022-11-18T17:30:14.165Z,101374.66
2022-11-18T17:32:41.149Z,101376.47
2022-11-18T17:35:09.043Z,101378.22
2022-11-18T17:37:36.138Z,101383.50
2022-11-18T17:40:03.372Z,101387.97
2022-11-18T17:42:30.462Z,101386.44
2022-11-18T17:44:57.403Z,101391.88
2022-11-18T17:47:24.559Z,101394.66
2022-11-18T17:49:51.528Z,101390.38
2022-11-18T17:52:19.393Z,101386.22
2022-11-18T17:54:46.475Z,101385.25
2022-11-18T17:57:17.871Z,101383.16
2022-11-18T18:00:09.690Z,101390.31
2022-11-18T18:02:38.590Z,101390.88
2022-11-18T18:05:06.441Z,101391.50
2022-11-18T18:07:34.077Z,101392.72
2022-11-18T18:10:01.440Z,101386.66
2022-11-18T18:12:46.848Z,101387.03
2022-11-18T18:15:13.578Z,101390.31
2022-11-18T18:17:40.713Z,101382.84
2022-11-18T18:20:07.786Z,101390.56
2022-11-18T18:22:34.643Z,101395.66
2022-11-18T18:25:01.543Z,101398.13
2022-11-18T18:27:32.020Z,101392.59
2022-11-18T18:30:00.210Z,101400.25
2022-11-18T18:32:26.964Z,101395.47
2022-11-18T18:34:59.670Z,101412.63
2022-11-18T18:37:30.561Z,101417.81
2022-11-18T18:39:57.702Z,101424.84
2022-11-18T18:42:24.533Z,101431.75
2022-11-18T18:45:10.172Z,101422.97
2022-11-18T18:47:39.532Z,101429.47
2022-11-18T18:50:06.590Z,101429.34
2022-11-18T18:52:33.513Z,101424.13
2022-11-18T18:55:00.473Z,101413.28
2022-11-18T18:57:29.968Z,101414.53
2022-11-18T18:59:57.225Z,101411.84
2022-11-18T19:02:25.024Z,101405.81
2022-11-18T19:04:53.230Z,101400.78
2022-11-18T19:07:20.438Z,101398.91
2022-11-18T19:09:50.721Z,101385.22
2022-11-18T19:12:52.741Z,101377.78
2022-11-18T19:15:45.721Z,101375.22
2022-11-18T19:18:12.584Z,101371.81
2022-11-18T19:21:04.289Z,101365.25
2022-11-18T19:23:51.282Z,101349.16
2022-11-18T19:26:18.327Z,101340.16
2022-11-18T19:28:45.656Z,101336.97
2022-11-18T19:31:12.566Z,101332.59
2022-11-18T19:34:04.342Z,101324.13
2022-11-18T19:36:56.419Z,101316.63
2022-11-18T19:39:23.269Z,101308.34
2022-11-18T19:41:50.084Z,101300.66
2022-11-18T19:44:16.928Z,101291.28
2022-11-18T19:46:43.961Z,101279.47
2022-11-18T19:49:10.764Z,101278.22
2022-11-18T19:51:40.435Z,101275.53
2022-11-18T19:54:07.235Z,101275.72
2022-11-18T19:56:37.126Z,101272.94
2022-11-18T19:59:04.068Z,101265.00
2022-11-18T20:01:56.447Z,101253.47
2022-11-18T20:04:28.104Z,101250.97
2022-11-18T20:06:55.328Z,101243.41
2022-11-18T20:09:22.226Z,101249.03
2022-11-18T20:11:49.260Z,101252.03
2022-11-18T20:14:16.066Z,101239.97
2022-11-18T20:19:35.684Z,101232.13
2022-11-18T20:22:02.457Z,101234.09
2022-11-18T20:24:29.320Z,101226.66
2022-11-18T20:26:59.172Z,101236.84
2022-11-18T20:29:26.039Z,101229.88
2022-11-18T20:31:54.693Z,101229.16
2022-11-18T20:34:22.180Z,101224.72
2022-11-18T20:36:51.964Z,101219.31
2022-11-18T20:39:19.383Z,101221.63
2022-11-18T20:42:11.221Z,101215.66
2022-11-18T20:44:38.103Z,101198.31
2022-11-18T20:47:05.141Z,101193.81
2022-11-18T20:49:31.899Z,101197.31
2022-11-18T20:51:58.820Z,101191.63
2022-11-18T20:54:25.642Z,101195.13
2022-11-18T20:56:52.455Z,101190.97
2022-11-18T20:59:22.070Z,101184.78
2022-11-18T21:01:49.033Z,101182.75
2022-11-18T21:04:15.948Z,101165.25
2022-11-18T21:06:43.050Z,101167.72
2022-11-18T21:09:10.421Z,101165.44
2022-11-18T21:11:37.288Z,101167.53
2022-11-18T21:14:25.100Z,101171.03
2022-11-18T21:17:00.617Z,101177.81
2022-11-18T21:19:32.689Z,101178.84
2022-11-18T21:21:59.900Z,101164.13
2022-11-18T21:24:34.482Z,101174.88
2022-11-18T21:27:02.844Z,101174.09
2022-11-18T21:29:31.618Z,101182.44
2022-11-18T21:32:02.490Z,101183.69
2022-11-18T21:34:30.303Z,101183.84
2022-11-18T21:36:57.132Z,101187.25
2022-11-18T21:39:25.109Z,101192.78
2022-11-18T21:41:56.227Z,101192.72
2022-11-18T21:44:28.364Z,101196.53
2022-11-18T21:46:56.907Z,101192.13
2022-11-18T21:49:23.929Z,101191.25
2022-11-18T21:51:50.928Z,101204.88
2022-11-18T21:55:07.667Z,101194.16
2022-11-18T21:57:34.504Z,101191.66
2022-11-18T22:00:01.237Z,101191.25
2022-11-18T22:02:33.716Z,101183.19
2022-11-18T22:05:06.521Z,101179.31
2022-11-18T22:07:33.477Z,101180.44
2022-11-18T22:10:00.296Z,101174.84
2022-11-18T22:12:27.234Z,101178.66
2022-11-18T22:14:53.920Z,101175.91
2022-11-18T22:17:23.634Z,101162.38
2022-11-18T22:19:50.366Z,101161.16
2022-11-18T22:22:17.189Z,101156.50
2022-11-18T22:24:44.461Z,101165.44
2022-11-18T22:27:11.822Z,101149.19
2022-11-18T22:29:39.472Z,101153.13
2022-11-18T22:32:06.203Z,101140.41
2022-11-18T22:34:34.702Z,101138.59
2022-11-18T22:37:02.128Z,101134.03
2022-11-18T22:39:29.295Z,101131.06
2022-11-18T22:42:14.581Z,101137.25
2022-11-18T22:44:41.298Z,101134.63
2022-11-18T22:47:08.133Z,101120.06
2022-11-18T22:49:35.027Z,101114.59
2022-11-18T22:52:01.960Z,101108.31
2022-11-18T22:54:38.692Z,101113.75
2022-11-18T22:57:06.739Z,101105.88
2022-11-18T22:59:33.693Z,101089.22
2022-11-18T23:02:01.821Z,101103.66
2022-11-18T23:04:28.597Z,101099.09
2022-11-18T23:06:55.356Z,101101.31
2022-11-18T23:09:22.400Z,101095.31
2022-11-18T23:12:07.802Z,101099.78
2022-11-18T23:14:34.583Z,101103.34
2022-11-18T23:17:01.358Z,101103.94
2022-11-18T23:19:28.155Z,101117.19
2022-11-18T23:21:54.843Z,101122.78
2022-11-18T23:24:22.544Z,101124.53
2022-11-18T23:26:50.018Z,101126.75
2022-11-18T23:29:17.082Z,101123.38
2022-11-18T23:31:47.439Z,101131.16
2022-11-18T23:34:16.399Z,101131.34
2022-11-18T23:36:43.207Z,101132.00
2022-11-18T23:39:10.174Z,101136.34
2022-11-18T23:41:38.414Z,101138.09
2022-11-18T23:44:05.752Z,101137.59
2022-11-18T23:46:33.483Z,101143.56
2022-11-18T23:49:02.927Z,101142.25
2022-11-18T23:51:29.824Z,101146.38
2022-11-18T23:53:57.631Z,101153.09
2022-11-18T23:56:27.051Z,101161.50
2022-11-18T23:58:55.838Z,101156.38
